Time;durP1;ratioP1;P1;durP2;ratioP2;P2;SDS_P1;SDS_P2;PMS_P1;PMS_P2;Temp;Humidity;BMP_temperature;BMP_pressure;BME280_temperature;BME280_humidity;BME280_pressure;Samples;Min_cycle;Max_cycle;Signal;HPM_P1;HPM_P2
2022/11/23 00:39:00;;;;;;;;;;;;;;;;;;;;;
2022/11/23 01:06:03;;;;;;;;;;;;;;;;;;;;;
2022/11/23 01:09:39;;;;;;;;;;;;;;;;;;;;;
2022/11/23 02:08:07;;;;;;;27.73;3.83;;;;;;;17.15;nan;101805.75;6039991;23;20472;-89
2022/11/23 03:55:27;;;;;;;14.20;2.77;;;;;;;17.04;nan;101740.09;6096439;23;20382;-91
2022/11/23 04:10:01;;;;;;;17.17;2.30;;;;;;;16.95;nan;101744.13;6096072;23;20458;-91
2022/11/23 04:17:20;;;;;;;17.87;2.50;;;;;;;16.92;nan;101734.38;6054006;23;20463;-91
2022/11/23 04:35:54;;;;;;;17.67;2.23;;;;;;;17.01;nan;101710.13;5954281;24;20398;-91
2022/11/23 05:27:39;;;;;;;18.13;3.73;;;;;;;17.15;nan;101709.06;6165864;23;20469;-91
2022/11/23 07:20:47;;;;;;;16.00;1.97;;;;;;;17.03;nan;101736.50;6157845;23;20438;-92
2022/11/23 07:23:44;;;;;;;11.37;2.03;;;;;;;17.02;nan;101737.56;6092374;23;20417;-92
2022/11/23 07:38:24;;;;;;;20.50;3.20;;;;;;;17.01;nan;101755.19;5900552;24;20442;-92
2022/11/23 07:46:43;;;;;;;;;;;;;;;;;;;;;
2022/11/23 07:53:10;;;;;;;21.93;2.80;;;;;;;17.05;nan;101777.72;5900387;24;20396;-91
2022/11/23 10:19:01;;;;;;;12.23;2.20;;;;;;;20.35;nan;101884.97;6219203;22;21070;-91
2022/11/23 10:25:14;;;;;;;26.43;3.43;;;;;;;20.65;nan;101869.25;6156858;23;20428;-93
2022/11/23 10:28:26;;;;;;;26.03;3.70;;;;;;;20.74;nan;101871.72;6089240;23;20408;-93
2022/11/23 10:39:28;;;;;;;16.50;3.10;;;;;;;20.86;nan;101870.69;6040063;23;20429;-91
2022/11/23 10:46:31;;;;;;;25.10;4.00;;;;;;;20.77;nan;101862.91;6040126;23;20392;-91
2022/11/23 10:49:15;;;;;;;19.80;2.77;;;;;;;20.77;nan;101876.81;5955992;24;20423;-93
2022/11/23 10:55:57;;;;;;;18.83;3.70;;;;;;;20.76;nan;101883.44;5874572;24;20435;-91
2022/11/23 10:58:35;;;;;;;24.80;4.00;;;;;;;20.73;nan;101867.22;5829656;24;20433;-92
2022/11/23 11:12:28;;;;;;;12.83;2.70;;;;;;;20.61;nan;101856.88;5915377;24;20391;-90
2022/11/23 11:15:02;;;;;;;33.00;3.87;;;;;;;20.65;nan;101868.38;5861456;24;20996;-91
2022/11/23 11:25:56;;;;;;;;;;;;;;;;;;;;;
2022/11/23 11:29:37;;;;;;;20.13;2.80;;;;;;;21.32;nan;101856.13;5793182;24;20492;-93
2022/11/23 11:32:20;;;;;;;18.53;3.20;;;;;;;21.41;nan;101864.13;5853080;24;20532;-91
2022/11/23 11:35:13;;;;;;;16.73;2.87;;;;;;;21.42;nan;101857.47;5872994;24;20426;-91
2022/11/23 11:38:19;;;;;;;16.57;2.50;;;;;;;21.31;nan;101843.31;5873254;24;21052;-91
2022/11/23 11:40:50;;;;;;;20.40;2.93;;;;;;;21.37;nan;101850.69;5848882;24;20500;-91
2022/11/23 11:43:24;;;;;;;9.53;2.23;;;;;;;21.59;nan;101847.34;5850135;24;21044;-92
2022/11/23 11:46:21;;;;;;;24.20;3.20;;;;;;;21.78;nan;101857.28;5887088;23;20421;-92
2022/11/23 11:49:22;;;;;;;18.17;2.97;;;;;;;21.82;nan;101836.22;6009946;23;20413;-91
2022/11/23 11:52:22;;;;;;;23.93;2.93;;;;;;;21.76;nan;101837.19;5967376;23;20916;-92
2022/11/23 11:55:15;;;;;;;12.33;2.43;;;;;;;21.63;nan;101829.09;5981492;23;20965;-92
2022/11/23 11:58:04;;;;;;;17.00;2.80;;;;;;;21.52;nan;101841.06;5983533;23;20943;-92
2022/11/23 12:00:38;;;;;;;17.87;2.37;;;;;;;21.44;nan;101835.84;5992219;23;21060;-92
2022/11/23 12:03:46;;;;;;;33.03;3.43;;;;;;;21.45;nan;101837.53;5972115;23;20537;-92
2022/11/23 12:06:26;;;;;;;14.37;3.00;;;;;;;21.49;nan;101830.41;5991278;23;20419;-92
2022/11/23 12:09:16;;;;;;;12.83;2.90;;;;;;;21.54;nan;101830.53;5969296;23;20412;-92
2022/11/23 12:11:50;;;;;;;23.23;3.30;;;;;;;21.54;nan;101816.63;6014755;23;20975;-92
2022/11/23 12:14:19;;;;;;;19.90;3.30;;;;;;;21.55;nan;101808.00;5991880;23;20388;-92
2022/11/23 12:17:16;;;;;;;12.00;2.30;;;;;;;21.51;nan;101806.81;5992397;23;20436;-92
2022/11/23 12:20:43;;;;;;;22.80;3.80;;;;;;;21.42;nan;101813.81;6017912;23;20405;-92
2022/11/23 12:23:35;;;;;;;18.23;4.13;;;;;;;21.31;nan;101796.03;6035125;23;20436;-92
2022/11/23 12:30:19;;;;;;;19.67;3.20;;;;;;;21.31;nan;101801.59;6068173;23;20955;-92
2022/11/23 12:32:50;;;;;;;19.10;3.53;;;;;;;21.21;nan;101789.34;6044466;23;20433;-93
2022/11/23 12:39:04;;;;;;;15.27;2.93;;;;;;;20.95;nan;101782.28;6189483;23;20400;-92
2022/11/23 12:42:13;;;;;;;26.70;3.73;;;;;;;20.91;nan;101786.59;6165192;23;20423;-92
2022/11/23 12:45:03;;;;;;;34.53;4.77;;;;;;;20.93;nan;101781.66;6162856;23;20423;-91
2022/11/23 12:47:40;;;;;;;24.13;3.77;;;;;;;20.92;nan;101779.97;6163080;23;20754;-92
2022/11/23 12:50:37;;;;;;;29.10;3.70;;;;;;;20.97;nan;101782.88;6115044;23;20471;-91
2022/11/23 12:53:39;;;;;;;22.23;3.80;;;;;;;21.04;nan;101778.91;6161855;23;20411;-92
2022/11/23 12:59:17;;;;;;;17.37;2.93;;;;;;;21.30;nan;101766.53;6189061;23;20416;-94
2022/11/23 13:05:49;;;;;;;19.40;3.43;;;;;;;21.46;nan;101769.69;6199362;23;20420;-93
2022/11/23 13:08:50;;;;;;;17.43;3.30;;;;;;;21.55;nan;101759.91;6181570;23;20917;-93
2022/11/23 13:11:51;;;;;;;16.70;4.20;;;;;;;21.74;nan;101760.63;6143771;23;20483;-93
2022/11/23 13:18:45;;;;;;;20.90;3.13;;;;;;;21.95;nan;101738.53;6188028;23;20427;-93
2022/11/23 13:21:36;;;;;;;19.23;3.50;;;;;;;22.22;nan;101749.16;6124517;23;20491;-93
2022/11/23 13:24:34;;;;;;;19.20;3.23;;;;;;;22.31;nan;101753.28;6161786;23;20455;-92
2022/11/23 13:27:29;;;;;;;35.33;3.27;;;;;;;22.36;nan;101747.78;6137617;23;20475;-91
2022/11/23 13:30:30;;;;;;;16.97;2.70;;;;;;;22.35;nan;101746.09;6137252;23;20422;-93
2022/11/23 13:36:59;;;;;;;16.60;3.20;;;;;;;22.47;nan;101738.56;6188321;23;20819;-91
2022/11/23 13:40:20;;;;;;;23.80;3.33;;;;;;;22.67;nan;101736.16;6123219;23;20410;-92
2022/11/23 13:43:10;;;;;;;24.30;3.03;;;;;;;22.82;nan;101735.63;6138087;23;20422;-92
2022/11/23 13:45:38;;;;;;;24.97;3.30;;;;;;;23.01;nan;101727.88;6162220;23;20794;-91
2022/11/23 13:48:19;;;;;;;16.10;3.13;;;;;;;23.09;nan;101735.84;6112706;23;20474;-92
2022/11/23 13:51:22;;;;;;;17.20;3.10;;;;;;;22.95;nan;101742.81;6147500;23;20403;-91
2022/11/23 13:54:19;;;;;;;25.47;4.53;;;;;;;22.77;nan;101743.00;6114462;23;20412;-91
2022/11/23 13:57:03;;;;;;;17.73;3.03;;;;;;;22.61;nan;101745.50;6114709;23;20511;-92
2022/11/23 13:59:37;;;;;;;25.77;2.90;;;;;;;22.48;nan;101734.69;6113244;23;20412;-92
2022/11/23 14:02:57;;;;;;;23.63;3.33;;;;;;;22.37;nan;101743.91;6113912;23;20415;-93
2022/11/23 14:06:01;;;;;;;25.60;3.40;;;;;;;22.21;nan;101747.47;6164674;23;20401;-91
2022/11/23 14:08:37;;;;;;;23.23;2.97;;;;;;;22.12;nan;101746.19;6165774;23;20474;-93
2022/11/23 14:11:55;;;;;;;18.57;3.03;;;;;;;22.13;nan;101742.31;6139121;23;20392;-92
2022/11/23 14:14:28;;;;;;;20.13;3.27;;;;;;;22.03;nan;101743.78;6046247;23;20423;-92
2022/11/23 14:17:23;;;;;;;16.80;2.83;;;;;;;21.98;nan;101740.84;6023054;23;20790;-93
2022/11/23 14:20:03;;;;;;;17.97;3.43;;;;;;;21.94;nan;101734.06;6045423;23;20479;-92
2022/11/23 14:23:19;;;;;;;15.23;3.17;;;;;;;21.89;nan;101728.41;6055824;23;20438;-93
2022/11/23 14:26:14;;;;;;;14.73;2.50;;;;;;;21.88;nan;101729.50;5957723;24;20810;-93
2022/11/23 14:29:05;;;;;;;19.73;3.63;;;;;;;21.81;nan;101734.34;5957273;24;20425;-93
2022/11/23 14:31:58;;;;;;;24.73;3.40;;;;;;;21.82;nan;101730.47;5961494;24;20411;-94
2022/11/23 14:34:34;;;;;;;23.47;2.90;;;;;;;21.80;nan;101724.28;5959237;24;20411;-92
2022/11/23 14:37:39;;;;;;;24.73;3.83;;;;;;;21.81;nan;101720.41;5958607;24;20483;-93
2022/11/23 14:40:29;;;;;;;31.70;3.47;;;;;;;21.88;nan;101711.94;5961780;24;20474;-93
2022/11/23 14:42:58;;;;;;;20.03;3.17;;;;;;;21.83;nan;101706.25;5961203;24;20423;-93
2022/11/23 14:45:32;;;;;;;18.10;3.00;;;;;;;21.86;nan;101706.63;5935649;24;20478;-94
2022/11/23 14:48:37;;;;;;;21.17;3.43;;;;;;;21.86;nan;101714.13;5935509;24;20529;-92
2022/11/23 14:51:45;;;;;;;17.13;3.23;;;;;;;21.83;nan;101715.47;5978992;23;20423;-92
2022/11/23 14:54:13;;;;;;;22.30;3.43;;;;;;;21.80;nan;101715.94;6014672;23;20472;-92
2022/11/23 14:56:44;;;;;;;20.30;3.33;;;;;;;21.80;nan;101707.59;5943363;23;20967;-91
2022/11/23 14:59:18;;;;;;;14.73;2.90;;;;;;;21.90;nan;101707.84;5989353;23;20721;-92
2022/11/23 15:02:02;;;;;;;19.40;3.20;;;;;;;21.95;nan;101718.19;6073757;23;20892;-92
2022/11/23 15:04:54;;;;;;;18.33;3.20;;;;;;;21.91;nan;101695.59;6086980;23;20460;-91
2022/11/23 15:07:51;;;;;;;27.17;3.77;;;;;;;21.94;nan;101716.50;6134623;23;20388;-94
2022/11/23 15:10:51;;;;;;;23.77;2.70;;;;;;;21.85;nan;101702.16;6135087;23;20413;-94
2022/11/23 15:13:30;;;;;;;20.43;3.47;;;;;;;21.78;nan;101692.22;6090211;23;20417;-93
2022/11/23 15:16:11;;;;;;;12.50;2.70;;;;;;;21.77;nan;101693.31;6088388;23;20413;-93
2022/11/23 15:18:45;;;;;;;13.60;3.13;;;;;;;21.84;nan;101696.81;6086132;23;20507;-93
2022/11/23 15:21:33;;;;;;;21.60;3.73;;;;;;;21.89;nan;101714.50;6110117;23;20463;-92
2022/11/23 15:24:26;;;;;;;23.07;3.40;;;;;;;21.81;nan;101689.81;6136734;23;20439;-93
2022/11/23 15:27:15;;;;;;;18.90;3.80;;;;;;;21.83;nan;101709.88;6116694;23;20484;-93
2022/11/23 15:29:52;;;;;;;11.33;2.43;;;;;;;21.75;nan;101707.47;6139777;23;20463;-92
2022/11/23 15:35:37;;;;;;;18.77;2.67;;;;;;;21.61;nan;101695.75;6188905;23;20422;-92
2022/11/23 15:38:30;;;;;;;19.90;3.40;;;;;;;21.59;nan;101708.22;6138202;23;21056;-92
2022/11/23 15:41:16;;;;;;;14.63;2.70;;;;;;;21.45;nan;101678.97;6162823;23;20416;-92
2022/11/23 15:44:05;;;;;;;17.57;2.63;;;;;;;21.52;nan;101694.47;6113778;23;20412;-92
2022/11/23 15:46:50;;;;;;;26.07;4.20;;;;;;;21.44;nan;101693.97;6163640;23;20400;-93
2022/11/23 15:49:42;;;;;;;21.80;3.20;;;;;;;21.32;nan;101700.41;6137360;23;20419;-92
2022/11/23 15:59:44;;;;;;;22.53;3.50;;;;;;;20.89;nan;101685.94;6187527;23;20415;-92
2022/11/23 16:02:30;;;;;;;23.20;3.23;;;;;;;20.91;nan;101689.31;6112815;23;20422;-93
2022/11/23 16:05:21;;;;;;;19.87;3.10;;;;;;;20.88;nan;101703.69;6114259;23;20476;-93
2022/11/23 16:31:37;;;;;;;22.33;4.37;;;;;;;20.15;nan;101706.66;6167414;23;20483;-93
2022/11/23 16:34:15;;;;;;;23.03;3.90;;;;;;;20.20;nan;101715.16;6108646;23;20812;-94
2022/11/23 16:36:58;;;;;;;22.80;4.20;;;;;;;20.04;nan;101705.50;6086946;23;20412;-93
2022/11/23 16:39:43;;;;;;;22.53;3.57;;;;;;;20.15;nan;101713.06;6134954;23;20884;-93
2022/11/23 16:42:19;;;;;;;18.33;3.63;;;;;;;20.12;nan;101721.00;5997029;23;20476;-93
2022/11/23 16:44:47;;;;;;;31.20;4.50;;;;;;;20.08;nan;101733.66;6058019;23;20419;-93
2022/11/23 16:47:24;;;;;;;27.97;4.50;;;;;;;20.05;nan;101726.63;5996884;23;20408;-94
2022/11/23 16:49:53;;;;;;;26.77;4.00;;;;;;;19.94;nan;101713.56;6020173;23;20444;-93
2022/11/23 16:52:23;;;;;;;21.13;3.50;;;;;;;19.97;nan;101727.81;5993638;23;20429;-94
2022/11/23 16:58:39;;;;;;;28.57;4.83;;;;;;;19.88;nan;101731.97;6043433;23;20431;-92
2022/11/23 17:01:23;;;;;;;34.50;5.33;;;;;;;19.88;nan;101729.19;6090772;23;20437;-93
2022/11/23 17:04:19;;;;;;;23.93;6.43;;;;;;;19.85;nan;101732.41;6110755;23;20468;-92
2022/11/23 17:06:51;;;;;;;26.20;5.50;;;;;;;19.82;nan;101730.09;6137158;23;20406;-93
2022/11/23 17:09:19;;;;;;;27.90;4.33;;;;;;;19.73;nan;101717.63;6113197;23;20970;-92
2022/11/23 17:11:51;;;;;;;23.97;3.57;;;;;;;19.72;nan;101735.34;6091285;23;20896;-93
2022/11/23 17:14:19;;;;;;;22.17;4.60;;;;;;;19.65;nan;101737.34;6114868;23;20417;-93
2022/11/23 17:16:56;;;;;;;22.23;3.57;;;;;;;19.66;nan;101739.03;6092405;23;20876;-93
2022/11/23 17:19:38;;;;;;;21.97;3.80;;;;;;;19.63;nan;101742.25;6089285;23;20412;-93
2022/11/23 17:22:08;;;;;;;18.13;3.63;;;;;;;19.58;nan;101736.59;6087994;23;20744;-92
2022/11/23 17:25:13;;;;;;;23.07;3.03;;;;;;;19.60;nan;101745.53;6090750;23;20417;-94
2022/11/23 17:27:44;;;;;;;21.77;3.87;;;;;;;19.53;nan;101740.03;6139083;23;20753;-93
2022/11/23 17:30:20;;;;;;;25.40;4.47;;;;;;;19.53;nan;101744.72;6088585;23;20420;-93
2022/11/23 17:32:48;;;;;;;22.53;3.10;;;;;;;19.50;nan;101742.41;6108615;23;20441;-92
2022/11/23 17:35:16;;;;;;;32.23;4.80;;;;;;;19.49;nan;101751.78;6146669;23;20428;-93
2022/11/23 17:37:45;;;;;;;382.00;167.23;;;;;;;19.47;nan;101760.31;6119158;23;20432;-93
2022/11/23 17:40:17;;;;;;;68.93;22.33;;;;;;;19.45;nan;101756.91;6164504;23;20418;-96
2022/11/23 17:55:03;;;;;;;25.20;6.73;;;;;;;19.41;nan;101764.03;6200016;23;20458;-96
2022/11/23 22:15:17;;;;;;;20.53;2.93;;;;;;;17.97;nan;101830.19;6181220;23;20435;-96
